createdAt,value
2023-12-09T00:00:56.210Z,39.03
2023-12-09T00:03:23.017Z,38.67
2023-12-09T00:05:49.942Z,38.97
2023-12-09T00:08:17.005Z,42.65
2023-12-09T00:10:43.779Z,40.03
2023-12-09T00:13:10.541Z,39.55
2023-12-09T00:15:37.597Z,38.20
2023-12-09T00:18:04.950Z,37.53
2023-12-09T00:20:31.718Z,37.33
2023-12-09T00:22:58.373Z,34.28
2023-12-09T00:25:25.358Z,35.88
2023-12-09T00:27:52.259Z,37.05
2023-12-09T00:30:19.014Z,35.03
2023-12-09T00:32:45.776Z,36.75
2023-12-09T00:35:12.534Z,36.47
2023-12-09T00:37:39.854Z,38.17
2023-12-09T00:40:06.874Z,37.60
2023-12-09T00:42:33.807Z,38.65
2023-12-09T00:45:00.921Z,38.10
2023-12-09T00:47:27.827Z,39.33
2023-12-09T00:49:55.018Z,37.75
2023-12-09T00:52:21.715Z,42.58
2023-12-09T00:54:48.448Z,37.92
2023-12-09T00:57:15.532Z,37.22
2023-12-09T00:59:42.273Z,34.35
2023-12-09T01:02:09.316Z,34.88
2023-12-09T01:04:36.132Z,35.53
2023-12-09T01:07:02.792Z,34.63
2023-12-09T01:09:30.497Z,34.42
2023-12-09T01:11:57.364Z,36.15
2023-12-09T01:14:24.064Z,34.25
2023-12-09T01:16:50.736Z,33.95
2023-12-09T01:19:17.471Z,35.15
2023-12-09T01:21:44.166Z,34.10
2023-12-09T01:24:11.697Z,37.03
2023-12-09T01:26:38.405Z,33.58
2023-12-09T01:29:05.414Z,33.58
2023-12-09T01:31:32.251Z,34.20
2023-12-09T01:33:59.386Z,34.33
2023-12-09T01:36:26.378Z,36.55
2023-12-09T01:38:53.209Z,36.47
2023-12-09T01:41:20.549Z,35.83
2023-12-09T01:43:49.351Z,36.85
2023-12-09T01:46:18.520Z,37.28
2023-12-09T01:48:45.890Z,37.58
2023-12-09T01:51:15.331Z,36.67
2023-12-09T01:53:43.207Z,34.70
2023-12-09T01:56:13.898Z,35.75
2023-12-09T01:58:41.255Z,32.10
2023-12-09T02:01:08.218Z,31.83
2023-12-09T02:03:35.369Z,34.55
2023-12-09T02:06:02.204Z,34.53
2023-12-09T02:08:29.081Z,34.58
2023-12-09T02:11:13.923Z,34.25
2023-12-09T02:13:55.956Z,32.45
2023-12-09T02:16:35.586Z,28.83
2023-12-09T02:19:02.951Z,31.02
2023-12-09T02:21:29.748Z,29.88
2023-12-09T02:23:57.049Z,29.30
2023-12-09T02:26:27.626Z,29.73
2023-12-09T02:29:01.378Z,29.73
2023-12-09T02:31:32.000Z,30.25
2023-12-09T02:34:02.483Z,29.58
2023-12-09T02:36:30.763Z,31.05
2023-12-09T02:38:58.853Z,27.55
2023-12-09T02:41:27.933Z,30.13
2023-12-09T02:43:54.871Z,29.35
2023-12-09T02:46:21.832Z,32.58
2023-12-09T02:48:48.670Z,32.78
2023-12-09T02:51:16.077Z,32.03
2023-12-09T02:53:42.766Z,28.60
2023-12-09T02:56:10.101Z,32.70
2023-12-09T02:58:36.864Z,30.13
2023-12-09T03:01:03.666Z,31.15
2023-12-09T03:03:33.950Z,26.92
2023-12-09T03:06:00.938Z,26.30
2023-12-09T03:08:27.602Z,28.30
2023-12-09T03:10:54.337Z,26.98
2023-12-09T03:13:21.600Z,29.23
2023-12-09T03:15:48.482Z,28.92
2023-12-09T03:18:16.145Z,29.55
2023-12-09T03:20:43.059Z,29.05
2023-12-09T03:23:09.834Z,29.67
2023-12-09T03:25:36.582Z,28.27
2023-12-09T03:28:06.183Z,28.50
2023-12-09T03:30:32.904Z,34.33
2023-12-09T03:32:59.672Z,30.80
2023-12-09T03:35:26.730Z,28.00
2023-12-09T03:37:53.403Z,29.95
2023-12-09T03:40:20.113Z,29.98
2023-12-09T03:42:46.877Z,29.33
2023-12-09T03:45:13.740Z,30.75
2023-12-09T03:47:40.472Z,27.67
2023-12-09T03:50:07.650Z,29.08
2023-12-09T03:52:34.528Z,29.40
2023-12-09T03:55:01.440Z,30.55
2023-12-09T03:57:28.249Z,30.08
2023-12-09T03:59:55.112Z,27.02
2023-12-09T04:02:21.952Z,30.65
2023-12-09T04:04:48.806Z,27.08
2023-12-09T04:07:15.901Z,26.88
2023-12-09T04:09:42.803Z,26.55
2023-12-09T04:12:09.543Z,26.52
2023-12-09T04:14:36.339Z,26.98
2023-12-09T04:17:03.271Z,29.48
2023-12-09T04:19:30.419Z,28.10
2023-12-09T04:21:57.182Z,28.17
2023-12-09T04:24:24.417Z,25.48
2023-12-09T04:26:51.259Z,25.13
2023-12-09T04:29:18.090Z,24.65
2023-12-09T04:31:45.322Z,24.05
2023-12-09T04:34:12.084Z,24.55
2023-12-09T04:36:38.996Z,26.25
2023-12-09T04:39:06.547Z,24.52
2023-12-09T04:41:33.408Z,24.33
2023-12-09T04:44:00.110Z,26.48
2023-12-09T04:46:26.874Z,25.42
2023-12-09T04:48:54.016Z,22.80
2023-12-09T04:51:20.952Z,24.38
2023-12-09T04:53:47.637Z,24.58
2023-12-09T04:56:14.378Z,26.75
2023-12-09T04:58:41.125Z,26.42
2023-12-09T05:01:07.884Z,26.70
2023-12-09T05:03:34.839Z,27.85
2023-12-09T05:06:01.950Z,26.73
2023-12-09T05:08:29.452Z,26.65
2023-12-09T05:10:56.251Z,28.15
2023-12-09T05:13:23.496Z,28.95
2023-12-09T05:15:54.906Z,26.98
2023-12-09T05:18:21.800Z,28.80
2023-12-09T05:20:49.272Z,29.33
2023-12-09T05:23:16.627Z,30.67
2023-12-09T05:25:45.042Z,28.80
2023-12-09T05:28:11.833Z,29.92
2023-12-09T05:30:41.685Z,30.40
2023-12-09T05:33:08.812Z,30.23
2023-12-09T05:35:37.032Z,31.63
2023-12-09T05:38:03.919Z,32.05
2023-12-09T05:40:32.633Z,30.90
2023-12-09T05:43:01.367Z,29.77
2023-12-09T05:45:28.227Z,30.63
2023-12-09T05:47:55.432Z,30.70
2023-12-09T05:50:22.525Z,30.25
2023-12-09T05:52:49.508Z,29.15
2023-12-09T05:55:17.425Z,29.67
2023-12-09T05:57:44.998Z,30.08
2023-12-09T06:00:13.244Z,31.23
2023-12-09T06:02:42.234Z,30.08
2023-12-09T06:05:09.825Z,30.05
2023-12-09T06:07:36.536Z,30.00
2023-12-09T06:10:04.209Z,30.77
2023-12-09T06:12:31.240Z,30.23
2023-12-09T06:14:58.582Z,29.50
2023-12-09T06:17:25.326Z,30.35
2023-12-09T06:19:52.234Z,31.23
2023-12-09T06:22:19.091Z,29.63
2023-12-09T06:24:45.838Z,30.08
2023-12-09T06:27:13.645Z,32.40
2023-12-09T06:29:40.391Z,32.88
2023-12-09T06:32:07.327Z,36.13
2023-12-09T06:34:34.072Z,32.88
2023-12-09T06:37:00.872Z,31.92
2023-12-09T06:39:27.788Z,31.65
2023-12-09T06:41:57.273Z,31.92
2023-12-09T06:44:24.317Z,31.02
2023-12-09T06:46:50.984Z,31.05
2023-12-09T06:49:19.292Z,31.25
2023-12-09T06:51:48.431Z,32.13
2023-12-09T06:54:15.183Z,30.42
2023-12-09T06:56:41.910Z,29.35
2023-12-09T06:59:08.937Z,30.35
2023-12-09T07:01:36.010Z,29.23
2023-12-09T07:04:02.925Z,28.20
2023-12-09T07:06:30.829Z,31.02
2023-12-09T07:09:00.462Z,34.30
2023-12-09T07:11:27.769Z,33.35
2023-12-09T07:13:55.045Z,34.55
2023-12-09T07:16:22.198Z,30.45
2023-12-09T07:18:51.689Z,29.83
2023-12-09T07:21:18.654Z,27.90
2023-12-09T07:23:45.599Z,26.48
2023-12-09T07:26:13.255Z,26.25
2023-12-09T07:28:40.325Z,24.63
2023-12-09T07:31:07.075Z,26.38
2023-12-09T07:33:33.987Z,26.15
2023-12-09T07:36:04.002Z,26.13
2023-12-09T07:38:30.864Z,28.58
2023-12-09T07:40:57.712Z,28.17
2023-12-09T07:43:24.478Z,26.77
2023-12-09T07:45:51.936Z,29.05
2023-12-09T07:48:18.850Z,27.85
2023-12-09T07:50:45.718Z,28.15
2023-12-09T07:53:12.444Z,26.98
2023-12-09T07:55:39.149Z,30.52
2023-12-09T07:58:06.090Z,35.20
2023-12-09T08:00:33.490Z,27.88
2023-12-09T08:03:05.654Z,31.17
2023-12-09T08:05:36.223Z,34.40
2023-12-09T08:08:04.273Z,31.10
2023-12-09T08:10:30.991Z,29.42
2023-12-09T08:12:57.720Z,33.35
2023-12-09T08:15:25.113Z,32.45
2023-12-09T08:17:52.272Z,33.45
2023-12-09T08:20:19.730Z,37.03
2023-12-09T08:22:46.440Z,37.50
2023-12-09T08:25:13.981Z,29.70
2023-12-09T08:27:40.706Z,32.22
2023-12-09T08:30:11.477Z,34.60
2023-12-09T08:32:40.261Z,32.40
2023-12-09T08:35:10.002Z,33.47
2023-12-09T08:37:38.394Z,34.22
2023-12-09T08:40:14.492Z,34.78
2023-12-09T08:42:43.406Z,39.55
2023-12-09T08:45:13.417Z,35.45
2023-12-09T08:47:44.212Z,32.92
2023-12-09T08:52:45.690Z,28.17
2023-12-09T08:55:12.772Z,27.63
2023-12-09T08:57:40.124Z,30.17
2023-12-09T09:00:10.698Z,24.80
2023-12-09T09:02:37.746Z,29.10
2023-12-09T09:05:05.146Z,32.05
2023-12-09T09:07:31.927Z,32.85
2023-12-09T09:09:59.061Z,21.42
2023-12-09T09:12:26.348Z,22.63
2023-12-09T09:14:53.758Z,19.90
2023-12-09T09:17:20.478Z,19.88
2023-12-09T09:19:47.429Z,21.15
2023-12-09T09:22:14.133Z,19.38
2023-12-09T09:24:43.251Z,17.33
2023-12-09T09:27:10.034Z,18.20
2023-12-09T09:29:36.762Z,18.65
2023-12-09T09:32:04.275Z,18.45
2023-12-09T09:34:31.022Z,18.40
2023-12-09T09:36:57.755Z,16.10
2023-12-09T09:39:24.628Z,15.32
2023-12-09T09:42:03.421Z,14.75
2023-12-09T09:44:33.837Z,13.65
2023-12-09T09:47:01.480Z,13.15
2023-12-09T09:49:31.923Z,16.02
2023-12-09T09:52:01.410Z,14.50
2023-12-09T09:54:30.325Z,12.60
2023-12-09T09:56:59.401Z,12.80
2023-12-09T09:59:27.427Z,13.95
2023-12-09T10:01:54.146Z,14.20
2023-12-09T10:04:20.924Z,15.88
2023-12-09T10:06:49.297Z,17.38
2023-12-09T10:09:16.269Z,19.77
2023-12-09T10:11:45.819Z,19.27
2023-12-09T10:14:12.543Z,19.70
2023-12-09T10:16:40.273Z,17.95
2023-12-09T10:19:10.514Z,21.30
2023-12-09T10:21:38.027Z,17.80
2023-12-09T10:24:05.298Z,19.48
2023-12-09T10:26:32.806Z,20.40
2023-12-09T10:28:59.548Z,18.23
2023-12-09T10:31:28.692Z,20.38
2023-12-09T10:33:59.635Z,16.25
2023-12-09T10:36:26.715Z,16.50
2023-12-09T10:38:54.055Z,15.00
2023-12-09T10:41:22.889Z,14.70
2023-12-09T10:43:49.780Z,13.85
2023-12-09T10:46:16.820Z,14.10
2023-12-09T10:48:43.755Z,15.05
2023-12-09T10:51:11.951Z,12.48
2023-12-09T10:53:38.908Z,13.40
2023-12-09T10:56:08.076Z,14.02
2023-12-09T10:58:39.365Z,12.40
2023-12-09T11:01:08.425Z,11.35
2023-12-09T11:03:36.711Z,13.40
2023-12-09T11:06:07.762Z,12.57
2023-12-09T11:08:39.495Z,14.00
2023-12-09T11:11:09.021Z,13.10
2023-12-09T11:13:37.760Z,13.77
2023-12-09T11:16:21.940Z,14.35
2023-12-09T11:18:53.179Z,14.43
2023-12-09T11:21:22.346Z,13.68
2023-12-09T11:23:51.361Z,13.38
2023-12-09T11:26:20.580Z,14.23
2023-12-09T11:29:07.659Z,14.25
2023-12-09T11:31:38.687Z,12.48
2023-12-09T11:34:07.406Z,13.95
2023-12-09T11:36:39.991Z,14.82
2023-12-09T11:39:11.718Z,12.98
2023-12-09T11:41:39.862Z,13.43
2023-12-09T11:44:07.858Z,12.35
2023-12-09T11:46:35.963Z,11.52
2023-12-09T11:49:07.061Z,12.55
2023-12-09T11:51:37.902Z,11.70
2023-12-09T11:54:10.109Z,12.95
2023-12-09T11:56:39.090Z,11.75
2023-12-09T11:59:06.792Z,13.20
2023-12-09T12:01:34.843Z,13.23
2023-12-09T12:04:01.833Z,11.77
2023-12-09T12:06:32.293Z,10.63
2023-12-09T12:08:59.723Z,14.05
2023-12-09T12:11:27.263Z,11.20
2023-12-09T12:13:54.596Z,13.10
2023-12-09T12:16:22.538Z,13.52
2023-12-09T12:18:53.181Z,14.75
2023-12-09T12:21:20.164Z,11.98
2023-12-09T12:23:52.986Z,14.77
2023-12-09T12:26:20.813Z,13.80
2023-12-09T12:28:52.899Z,12.63
2023-12-09T12:31:19.900Z,13.25
2023-12-09T12:33:47.054Z,16.02
2023-12-09T12:36:14.167Z,17.20
2023-12-09T12:38:41.429Z,15.30
2023-12-09T12:41:09.068Z,15.77
2023-12-09T12:43:36.614Z,14.07
2023-12-09T12:46:04.862Z,14.65
2023-12-09T12:48:32.112Z,13.15
2023-12-09T12:51:00.383Z,14.70
2023-12-09T12:53:28.759Z,11.68
2023-12-09T12:55:56.554Z,13.13
2023-12-09T12:58:24.004Z,13.88
2023-12-09T13:00:53.982Z,14.18
2023-12-09T13:03:22.150Z,15.25
2023-12-09T13:05:49.201Z,15.20
2023-12-09T13:08:16.058Z,14.20
2023-12-09T13:10:43.190Z,13.63
2023-12-09T13:13:10.276Z,16.13
2023-12-09T13:15:37.486Z,15.70
2023-12-09T13:18:07.282Z,15.02
2023-12-09T13:20:34.769Z,16.30
2023-12-09T13:23:01.531Z,14.82
2023-12-09T13:25:28.335Z,16.52
2023-12-09T13:27:55.603Z,15.60
2023-12-09T13:30:22.820Z,16.17
2023-12-09T13:32:49.865Z,18.67
2023-12-09T13:35:16.773Z,19.48
2023-12-09T13:37:44.155Z,16.42
2023-12-09T13:40:12.673Z,17.50
2023-12-09T13:42:40.162Z,20.23
2023-12-09T13:45:07.650Z,16.60
2023-12-09T13:47:34.519Z,16.65
2023-12-09T13:50:01.350Z,18.92
2023-12-09T13:52:31.820Z,16.50
2023-12-09T13:55:00.319Z,14.25
2023-12-09T13:57:27.749Z,16.73
2023-12-09T13:59:54.649Z,16.33
2023-12-09T14:02:21.594Z,16.25
2023-12-09T14:04:49.148Z,18.40
2023-12-09T14:07:16.491Z,18.15
2023-12-09T14:09:43.537Z,16.63
2023-12-09T14:12:10.650Z,17.70
2023-12-09T14:14:37.532Z,16.85
2023-12-09T14:17:06.372Z,17.30
2023-12-09T14:19:33.681Z,18.45
2023-12-09T14:22:00.561Z,14.30
2023-12-09T14:24:27.315Z,17.02
2023-12-09T14:26:54.681Z,16.90
2023-12-09T14:29:21.498Z,15.05
2023-12-09T14:31:48.959Z,14.05
2023-12-09T14:34:16.086Z,14.13
2023-12-09T14:36:43.950Z,14.65
2023-12-09T14:39:11.536Z,11.77
2023-12-09T14:41:40.790Z,12.55
2023-12-09T14:44:09.116Z,13.88
2023-12-09T14:46:36.765Z,19.52
2023-12-09T14:49:04.563Z,18.98
2023-12-09T14:51:40.460Z,22.85
2023-12-09T14:54:16.468Z,11.32
2023-12-09T14:56:46.167Z,16.70
2023-12-09T14:59:13.738Z,13.30
2023-12-09T15:01:41.001Z,20.67
2023-12-09T15:04:08.238Z,20.92
2023-12-09T15:06:35.308Z,15.93
2023-12-09T15:09:04.601Z,13.88
2023-12-09T15:11:31.567Z,16.25
2023-12-09T15:13:58.376Z,12.55
2023-12-09T15:16:25.657Z,14.63
2023-12-09T15:18:52.689Z,14.38
2023-12-09T15:21:19.828Z,16.60
2023-12-09T15:23:46.786Z,15.65
2023-12-09T15:26:27.759Z,13.05
2023-12-09T15:28:55.376Z,13.77
2023-12-09T15:31:23.047Z,15.57
2023-12-09T15:33:52.559Z,14.35
2023-12-09T15:36:19.957Z,9.77
2023-12-09T15:38:47.106Z,9.88
2023-12-09T15:41:14.011Z,9.10
2023-12-09T15:43:40.960Z,19.33
2023-12-09T15:46:07.781Z,9.02
2023-12-09T15:48:35.123Z,11.35
2023-12-09T15:51:06.143Z,9.30
2023-12-09T15:53:38.285Z,10.35
2023-12-09T15:56:11.664Z,9.95
2023-12-09T15:58:38.797Z,8.07
2023-12-09T16:01:15.415Z,8.98
2023-12-09T16:03:42.980Z,10.65
2023-12-09T16:06:10.420Z,8.70
2023-12-09T16:08:39.215Z,12.60
2023-12-09T16:11:15.499Z,11.02
2023-12-09T16:13:42.628Z,14.25
2023-12-09T16:16:09.707Z,10.40
2023-12-09T16:18:37.203Z,9.43
2023-12-09T16:21:05.207Z,7.95
2023-12-09T16:23:41.746Z,7.70
2023-12-09T16:26:18.811Z,10.27
2023-12-09T16:28:46.633Z,16.20
2023-12-09T16:31:16.406Z,15.75
2023-12-09T16:33:44.967Z,10.20
2023-12-09T16:36:12.218Z,11.70
2023-12-09T16:38:38.982Z,9.05
2023-12-09T16:41:06.784Z,12.10
2023-12-09T16:43:34.007Z,10.80
2023-12-09T16:46:01.155Z,11.25
2023-12-09T16:48:28.204Z,14.20
2023-12-09T16:50:56.196Z,15.00
2023-12-09T16:53:23.726Z,10.38
2023-12-09T16:55:50.708Z,7.72
2023-12-09T16:58:21.416Z,10.18
2023-12-09T17:00:48.745Z,9.68
2023-12-09T17:03:15.676Z,10.07
2023-12-09T17:05:42.856Z,14.13
2023-12-09T17:08:10.088Z,14.45
2023-12-09T17:10:37.053Z,13.45
2023-12-09T17:13:04.380Z,18.15
2023-12-09T17:15:31.508Z,10.15
2023-12-09T17:17:59.657Z,12.98
2023-12-09T17:20:27.141Z,15.75
2023-12-09T17:22:57.013Z,14.75
2023-12-09T17:25:23.920Z,13.85
2023-12-09T17:27:59.537Z,14.38
2023-12-09T17:30:26.941Z,14.85
2023-12-09T17:32:54.047Z,11.07
2023-12-09T17:35:29.207Z,17.17
2023-12-09T17:37:59.565Z,19.70
2023-12-09T17:40:26.706Z,21.13
2023-12-09T17:42:53.680Z,11.75
2023-12-09T17:45:20.528Z,18.85
2023-12-09T17:47:48.093Z,8.50
2023-12-09T17:50:20.036Z,16.40
2023-12-09T17:52:52.586Z,16.05
2023-12-09T17:55:19.590Z,12.25
2023-12-09T17:57:46.523Z,7.72
2023-12-09T18:00:14.195Z,8.73
2023-12-09T18:02:41.353Z,7.15
2023-12-09T18:05:09.914Z,7.57
2023-12-09T18:07:37.924Z,6.85
2023-12-09T18:10:06.102Z,5.63
2023-12-09T18:12:33.168Z,5.50
2023-12-09T18:14:59.913Z,6.65
2023-12-09T18:17:27.107Z,7.45
2023-12-09T18:19:55.892Z,8.30
2023-12-09T18:22:22.893Z,5.25
2023-12-09T18:24:50.300Z,5.90
2023-12-09T18:27:17.704Z,4.45
2023-12-09T18:29:44.914Z,4.85
2023-12-09T18:32:21.717Z,3.28
2023-12-09T18:34:48.656Z,5.57
2023-12-09T18:37:16.200Z,5.40
2023-12-09T18:39:43.256Z,4.80
2023-12-09T18:42:10.508Z,3.10
2023-12-09T18:44:37.661Z,3.70
2023-12-09T18:47:04.784Z,3.13
2023-12-09T18:49:31.927Z,3.58
2023-12-09T18:51:59.039Z,3.58
2023-12-09T18:54:28.913Z,3.63
2023-12-09T18:56:55.984Z,3.95
2023-12-09T18:59:23.107Z,5.30
2023-12-09T19:01:58.482Z,3.38
2023-12-09T19:04:31.537Z,2.42
2023-12-09T19:06:59.791Z,4.60
2023-12-09T19:09:28.732Z,2.67
2023-12-09T19:11:55.697Z,7.65
2023-12-09T19:14:22.991Z,3.22
2023-12-09T19:16:50.111Z,3.15
2023-12-09T19:19:18.840Z,3.33
2023-12-09T19:21:47.614Z,2.60
2023-12-09T19:24:14.718Z,2.85
2023-12-09T19:26:41.797Z,2.70
2023-12-09T19:29:09.042Z,2.78
2023-12-09T19:31:35.964Z,3.03
2023-12-09T19:34:08.631Z,2.75
2023-12-09T19:36:36.032Z,4.25
2023-12-09T19:39:05.918Z,4.13
2023-12-09T19:41:32.825Z,2.65
2023-12-09T19:43:59.532Z,1.63
2023-12-09T19:46:26.367Z,3.08
2023-12-09T19:48:53.445Z,2.90
2023-12-09T19:51:20.391Z,3.50
2023-12-09T19:53:47.266Z,4.20
2023-12-09T19:56:14.295Z,3.45
2023-12-09T19:58:41.067Z,3.05
2023-12-09T20:01:08.022Z,11.85
2023-12-09T20:03:35.000Z,3.08
2023-12-09T20:06:03.580Z,7.50
2023-12-09T20:08:32.714Z,2.20
2023-12-09T20:11:00.710Z,2.47
2023-12-09T20:13:27.514Z,3.47
2023-12-09T20:15:54.737Z,4.38
2023-12-09T20:18:21.666Z,4.47
2023-12-09T20:20:49.647Z,4.07
2023-12-09T20:23:16.579Z,10.80
2023-12-09T20:25:43.594Z,3.00
2023-12-09T20:28:10.904Z,3.22
2023-12-09T20:30:39.507Z,5.32
2023-12-09T20:33:07.938Z,4.43
2023-12-09T20:35:34.956Z,3.78
2023-12-09T20:38:02.876Z,5.13
2023-12-09T20:40:30.236Z,8.25
2023-12-09T20:43:22.976Z,7.95
2023-12-09T20:45:50.232Z,10.70
2023-12-09T20:48:20.154Z,16.45
2023-12-09T20:50:47.470Z,25.75
2023-12-09T20:53:14.372Z,16.15
2023-12-09T20:55:41.222Z,5.20
2023-12-09T20:58:08.044Z,21.80
2023-12-09T21:00:35.282Z,15.88
2023-12-09T21:03:04.090Z,8.10
2023-12-09T21:05:31.201Z,4.85
2023-12-09T21:07:58.181Z,4.80
2023-12-09T21:10:25.367Z,4.43
2023-12-09T21:12:52.528Z,6.57
2023-12-09T21:15:19.516Z,6.10
2023-12-09T21:17:46.953Z,10.40
2023-12-09T21:20:13.994Z,3.75
2023-12-09T21:22:43.410Z,5.63
2023-12-09T21:25:11.190Z,6.65
2023-12-09T21:27:38.715Z,14.35
2023-12-09T21:30:08.251Z,7.88
2023-12-09T21:32:35.380Z,10.13
2023-12-09T21:35:02.172Z,8.32
2023-12-09T21:37:29.340Z,6.93
2023-12-09T21:39:56.350Z,5.10
2023-12-09T21:42:30.249Z,5.20
2023-12-09T21:44:57.828Z,5.22
2023-12-09T21:47:25.257Z,5.22
2023-12-09T21:50:17.611Z,5.88
2023-12-09T21:52:44.449Z,4.47
2023-12-09T21:55:11.455Z,4.68
2023-12-09T21:57:38.640Z,5.45
2023-12-09T22:00:06.621Z,6.15
2023-12-09T22:02:33.653Z,6.50
2023-12-09T22:05:00.531Z,8.23
2023-12-09T22:07:27.358Z,7.97
2023-12-09T22:09:54.317Z,7.70
2023-12-09T22:12:21.486Z,7.85
2023-12-09T22:14:48.311Z,7.63
2023-12-09T22:17:17.436Z,9.10
2023-12-09T22:19:44.204Z,9.80
2023-12-09T22:22:11.458Z,11.55
2023-12-09T22:24:38.418Z,9.73
2023-12-09T22:27:05.841Z,11.10
2023-12-09T22:29:36.023Z,12.25
2023-12-09T22:32:02.914Z,12.82
2023-12-09T22:34:30.686Z,13.73
2023-12-09T22:37:02.145Z,11.77
2023-12-09T22:39:29.215Z,14.20
2023-12-09T22:41:56.206Z,15.23
2023-12-09T22:44:24.625Z,11.07
2023-12-09T22:46:51.919Z,12.73
2023-12-09T22:49:20.271Z,14.57
2023-12-09T22:51:47.071Z,13.93
2023-12-09T22:54:14.015Z,11.50
2023-12-09T22:56:40.795Z,11.10
2023-12-09T22:59:07.909Z,10.63
2023-12-09T23:01:40.700Z,10.07
2023-12-09T23:04:13.480Z,8.90
2023-12-09T23:06:40.788Z,9.55
2023-12-09T23:09:08.880Z,8.65
2023-12-09T23:11:37.412Z,8.75
2023-12-09T23:14:04.251Z,8.50
2023-12-09T23:16:31.065Z,6.60
2023-12-09T23:18:57.901Z,8.10
2023-12-09T23:21:25.079Z,8.40
2023-12-09T23:23:52.022Z,9.68
2023-12-09T23:26:18.755Z,9.68
2023-12-09T23:28:45.896Z,8.25
2023-12-09T23:31:12.720Z,8.93
2023-12-09T23:33:39.788Z,8.13
2023-12-09T23:36:06.999Z,8.45
2023-12-09T23:38:33.832Z,7.25
2023-12-09T23:41:01.208Z,7.15
2023-12-09T23:43:28.002Z,8.50
2023-12-09T23:45:55.629Z,7.13
2023-12-09T23:48:22.752Z,7.25
2023-12-09T23:50:49.822Z,7.80
2023-12-09T23:53:18.007Z,7.35
2023-12-09T23:55:45.310Z,8.93
2023-12-09T23:58:19.150Z,5.75
